createdAt,value
2018-07-13T00:00:56.256Z,18.13
2018-07-13T00:03:24.704Z,18.33
2018-07-13T00:05:53.090Z,17.03
2018-07-13T00:08:21.535Z,17.73
2018-07-13T00:10:49.994Z,18.20
2018-07-13T00:13:18.374Z,18.27
2018-07-13T00:15:58.003Z,16.93
2018-07-13T00:18:26.396Z,18.23
2018-07-13T00:20:54.870Z,18.13
2018-07-13T00:23:23.265Z,18.33
2018-07-13T00:25:52.029Z,18.93
2018-07-13T00:28:20.480Z,17.53
2018-07-13T00:30:48.894Z,18.60
2018-07-13T00:33:17.465Z,20.83
2018-07-13T00:35:45.928Z,17.87
2018-07-13T00:38:14.344Z,19.40
2018-07-13T00:40:42.805Z,18.73
2018-07-13T00:43:11.214Z,18.33
2018-07-13T00:45:39.869Z,19.23
2018-07-13T00:48:08.253Z,19.50
2018-07-13T00:50:36.707Z,18.33
2018-07-13T00:53:05.121Z,18.77
2018-07-13T00:55:33.275Z,18.27
2018-07-13T00:58:01.726Z,17.43
2018-07-13T01:00:32.152Z,19.13
2018-07-13T01:03:01.934Z,17.80
2018-07-13T01:05:30.627Z,18.30
2018-07-13T01:07:59.097Z,18.70
2018-07-13T01:10:27.661Z,19.90
2018-07-13T01:12:56.163Z,19.50
2018-07-13T01:15:24.607Z,20.17
2018-07-13T01:17:53.027Z,20.27
2018-07-13T01:20:21.473Z,20.47
2018-07-13T01:22:49.984Z,20.17
2018-07-13T01:25:18.411Z,20.40
2018-07-13T01:27:46.867Z,18.57
2018-07-13T01:30:15.245Z,18.50
2018-07-13T01:32:43.653Z,18.87
2018-07-13T01:35:12.067Z,18.80
2018-07-13T01:37:40.486Z,18.97
2018-07-13T01:40:08.943Z,18.60
2018-07-13T01:42:37.348Z,18.53
2018-07-13T01:45:05.838Z,18.17
2018-07-13T01:47:34.502Z,20.00
2018-07-13T01:50:03.122Z,19.73
2018-07-13T01:52:31.575Z,19.07
2018-07-13T01:55:00.027Z,19.10
2018-07-13T01:57:28.449Z,21.17
2018-07-13T01:59:56.914Z,20.93
2018-07-13T02:02:25.351Z,21.13
2018-07-13T02:04:53.499Z,19.90
2018-07-13T02:07:22.057Z,20.07
2018-07-13T02:09:52.735Z,19.17
2018-07-13T02:12:21.292Z,18.50
2018-07-13T02:14:50.243Z,20.50
2018-07-13T02:17:18.661Z,19.90
2018-07-13T02:19:47.485Z,19.20
2018-07-13T02:22:15.910Z,18.63
2018-07-13T02:24:45.139Z,19.90
2018-07-13T02:27:13.841Z,19.73
2018-07-13T02:29:42.409Z,19.53
2018-07-13T02:32:10.947Z,19.73
2018-07-13T02:34:39.387Z,20.00
2018-07-13T02:37:07.911Z,20.33
2018-07-13T02:39:36.491Z,20.47
2018-07-13T02:42:04.929Z,21.00
2018-07-13T02:44:33.382Z,21.20
2018-07-13T02:47:01.802Z,20.17
2018-07-13T02:49:30.346Z,19.53
2018-07-13T02:51:58.919Z,19.97
2018-07-13T02:54:27.421Z,21.13
2018-07-13T02:56:55.837Z,19.70
2018-07-13T02:59:24.405Z,20.87
2018-07-13T03:01:52.543Z,20.20
2018-07-13T03:04:21.151Z,19.70
2018-07-13T03:06:49.657Z,19.20
2018-07-13T03:09:18.264Z,19.63
2018-07-13T03:11:46.720Z,19.77
2018-07-13T03:14:15.175Z,20.23
2018-07-13T03:16:43.624Z,19.63
2018-07-13T03:19:12.065Z,21.10
2018-07-13T03:21:40.535Z,21.70
2018-07-13T03:24:09.073Z,21.57
2018-07-13T03:26:37.565Z,21.10
2018-07-13T03:29:05.999Z,22.47
2018-07-13T03:31:34.485Z,21.67
2018-07-13T03:34:02.904Z,22.77
2018-07-13T03:36:31.352Z,21.93
2018-07-13T03:38:59.883Z,22.60
2018-07-13T03:41:28.430Z,23.70
2018-07-13T03:43:56.900Z,22.17
2018-07-13T03:46:25.373Z,21.40
2018-07-13T03:48:53.796Z,22.20
2018-07-13T03:51:22.294Z,23.07
2018-07-13T03:53:50.780Z,21.33
2018-07-13T03:56:19.206Z,20.33
2018-07-13T03:58:47.781Z,20.40
2018-07-13T04:01:16.264Z,20.70
2018-07-13T04:03:44.720Z,20.50
2018-07-13T04:06:13.156Z,20.83
2018-07-13T04:08:41.568Z,20.50
2018-07-13T04:11:09.986Z,20.83
2018-07-13T04:13:38.451Z,20.20
2018-07-13T04:16:07.074Z,20.10
2018-07-13T04:18:35.586Z,20.53
2018-07-13T04:21:04.034Z,21.20
2018-07-13T04:23:32.553Z,21.83
2018-07-13T04:26:01.021Z,20.47
2018-07-13T04:28:29.581Z,20.00
2018-07-13T04:30:58.065Z,20.03
2018-07-13T04:33:26.540Z,19.63
2018-07-13T04:35:55.150Z,21.27
2018-07-13T04:38:23.589Z,18.77
2018-07-13T04:40:52.120Z,20.03
2018-07-13T04:43:20.523Z,19.53
2018-07-13T04:45:49.873Z,19.43
2018-07-13T04:48:18.393Z,19.13
2018-07-13T04:50:46.955Z,19.40
2018-07-13T04:53:15.858Z,19.47
2018-07-13T04:55:44.362Z,19.40
2018-07-13T04:58:13.354Z,21.20
2018-07-13T05:00:41.940Z,19.70
2018-07-13T05:03:10.637Z,19.00
2018-07-13T05:05:39.289Z,19.93
2018-07-13T05:08:07.793Z,20.80
2018-07-13T05:10:36.287Z,18.90
2018-07-13T05:13:04.911Z,20.07
2018-07-13T05:15:33.635Z,18.43
2018-07-13T05:18:02.258Z,18.20
2018-07-13T05:20:30.824Z,18.33
2018-07-13T05:22:59.355Z,18.70
2018-07-13T05:25:27.936Z,17.27
2018-07-13T05:27:56.904Z,17.40
2018-07-13T05:30:25.582Z,16.67
2018-07-13T05:32:54.256Z,16.97
2018-07-13T05:35:22.923Z,17.33
2018-07-13T05:37:51.595Z,15.03
2018-07-13T05:40:20.358Z,15.43
2018-07-13T05:42:49.090Z,15.27
2018-07-13T05:45:17.959Z,16.07
2018-07-13T05:47:46.704Z,16.37
2018-07-13T05:50:15.506Z,16.17
2018-07-13T05:52:45.049Z,15.07
2018-07-13T05:55:14.302Z,16.23
2018-07-13T05:57:43.014Z,16.07
2018-07-13T06:00:11.774Z,15.60
2018-07-13T06:02:40.404Z,14.20
2018-07-13T06:05:09.210Z,14.37
2018-07-13T06:07:39.806Z,14.47
2018-07-13T06:10:08.523Z,14.67
2018-07-13T06:12:37.295Z,13.90
2018-07-13T06:15:06.508Z,14.20
2018-07-13T06:17:35.303Z,14.03
2018-07-13T06:20:04.055Z,13.83
2018-07-13T06:22:33.061Z,14.27
2018-07-13T06:25:01.600Z,14.67
2018-07-13T06:27:30.195Z,12.47
2018-07-13T06:29:58.751Z,13.13
2018-07-13T06:32:28.145Z,13.67
2018-07-13T06:34:56.829Z,12.33
2018-07-13T06:37:25.384Z,12.88
2018-07-13T06:39:54.103Z,13.18
2018-07-13T06:42:22.992Z,12.25
2018-07-13T06:44:51.563Z,12.63
2018-07-13T06:47:20.158Z,11.90
2018-07-13T06:49:48.846Z,11.78
2018-07-13T06:52:17.535Z,11.78
2018-07-13T06:54:46.430Z,12.28
2018-07-13T06:59:27.265Z,12.30
2018-07-13T07:01:55.915Z,11.45
2018-07-13T07:04:28.554Z,11.75
2018-07-13T07:06:57.738Z,11.80
2018-07-13T07:09:27.489Z,11.43
2018-07-13T07:12:12.201Z,10.95
2018-07-13T07:14:40.793Z,10.23
2018-07-13T07:17:09.345Z,10.18
2018-07-13T07:19:37.860Z,9.63
2018-07-13T07:22:06.737Z,9.23
2018-07-13T07:24:36.046Z,9.43
2018-07-13T07:27:05.423Z,10.13
2018-07-13T07:29:33.990Z,8.78
2018-07-13T07:32:02.531Z,9.30
2018-07-13T07:34:31.230Z,8.88
2018-07-13T07:36:59.714Z,9.65
2018-07-13T07:39:28.305Z,10.25
2018-07-13T07:41:58.592Z,9.30
2018-07-13T07:44:28.014Z,9.08
2018-07-13T07:46:56.872Z,9.40
2018-07-13T07:49:25.483Z,9.48
2018-07-13T07:51:54.100Z,10.10
2018-07-13T07:54:22.590Z,10.13
2018-07-13T07:56:51.307Z,10.43
2018-07-13T07:59:20.367Z,9.75
2018-07-13T08:01:49.254Z,10.55
2018-07-13T08:04:17.901Z,9.85
2018-07-13T08:06:46.712Z,9.95
2018-07-13T08:09:15.492Z,8.50
2018-07-13T08:11:45.242Z,10.15
2018-07-13T08:14:14.057Z,8.45
2018-07-13T08:16:42.151Z,10.53
2018-07-13T08:19:10.917Z,10.18
2018-07-13T08:21:43.136Z,7.50
2018-07-13T08:24:13.648Z,8.40
2018-07-13T08:26:42.313Z,8.90
2018-07-13T08:29:12.615Z,8.93
2018-07-13T08:31:41.223Z,10.00
2018-07-13T08:34:09.728Z,10.85
2018-07-13T08:36:38.591Z,9.83
2018-07-13T08:39:08.347Z,7.45
2018-07-13T08:41:36.885Z,7.65
2018-07-13T08:44:05.553Z,8.00
2018-07-13T08:46:34.007Z,7.60
2018-07-13T08:49:02.684Z,7.00
2018-07-13T08:51:31.266Z,7.70
2018-07-13T08:53:59.883Z,8.33
2018-07-13T08:56:28.522Z,7.30
2018-07-13T08:58:57.162Z,7.58
2018-07-13T09:01:25.946Z,8.80
2018-07-13T09:03:54.739Z,8.85
2018-07-13T09:06:23.403Z,8.20
2018-07-13T09:08:52.086Z,6.65
2018-07-13T09:11:21.697Z,7.30
2018-07-13T09:13:50.615Z,7.17
2018-07-13T09:16:20.095Z,7.67
2018-07-13T09:18:48.944Z,7.60
2018-07-13T09:21:17.702Z,8.18
2018-07-13T09:23:46.205Z,8.15
2018-07-13T09:26:14.775Z,7.97
2018-07-13T09:28:43.251Z,6.87
2018-07-13T09:31:11.808Z,6.70
2018-07-13T09:33:40.569Z,6.20
2018-07-13T09:36:09.531Z,6.40
2018-07-13T09:38:38.395Z,5.92
2018-07-13T09:41:07.237Z,6.50
2018-07-13T09:43:36.757Z,5.75
2018-07-13T09:46:07.883Z,5.10
2018-07-13T09:48:37.809Z,6.45
2018-07-13T09:51:06.638Z,5.80
2018-07-13T09:53:35.988Z,6.12
2018-07-13T09:56:05.337Z,6.20
2018-07-13T09:58:37.863Z,6.50
2018-07-13T10:01:12.219Z,5.97
2018-07-13T10:03:40.945Z,6.17
2018-07-13T10:06:11.293Z,5.97
2018-07-13T10:08:39.928Z,5.85
2018-07-13T10:11:08.607Z,5.70
2018-07-13T10:13:37.419Z,6.05
2018-07-13T10:16:05.962Z,6.45
2018-07-13T10:18:34.528Z,6.37
2018-07-13T10:21:04.024Z,5.53
2018-07-13T10:23:33.204Z,5.83
2018-07-13T10:26:06.107Z,5.60
2018-07-13T10:28:36.724Z,6.12
2018-07-13T10:31:06.344Z,5.60
2018-07-13T10:33:36.092Z,6.00
2018-07-13T10:36:05.652Z,6.45
2018-07-13T10:38:34.312Z,6.15
2018-07-13T10:41:02.914Z,6.20
2018-07-13T10:43:31.811Z,5.90
2018-07-13T10:46:00.447Z,5.72
2018-07-13T10:48:29.158Z,6.70
2018-07-13T10:50:57.875Z,6.65
2018-07-13T10:53:26.572Z,5.70
2018-07-13T10:55:55.193Z,6.00
2018-07-13T10:58:24.421Z,6.53
2018-07-13T11:00:53.534Z,6.53
2018-07-13T11:03:22.426Z,5.65
2018-07-13T11:05:51.751Z,5.45
2018-07-13T11:08:20.854Z,5.25
2018-07-13T11:10:49.914Z,6.35
2018-07-13T11:13:18.880Z,6.05
2018-07-13T11:15:47.698Z,5.80
2018-07-13T11:18:16.430Z,6.10
2018-07-13T11:20:45.380Z,6.05
2018-07-13T11:23:14.388Z,5.20
2018-07-13T11:25:43.224Z,5.42
2018-07-13T11:28:12.006Z,5.67
2018-07-13T11:30:40.802Z,5.35
2018-07-13T11:33:09.874Z,6.60
2018-07-13T11:35:38.685Z,6.97
2018-07-13T11:38:07.928Z,6.28
2018-07-13T11:40:36.606Z,6.97
2018-07-13T11:43:05.201Z,6.67
2018-07-13T11:45:33.928Z,6.50
2018-07-13T11:48:02.759Z,6.90
2018-07-13T11:50:31.788Z,6.70
2018-07-13T11:53:00.730Z,6.83
2018-07-13T11:55:29.615Z,6.65
2018-07-13T11:57:58.307Z,6.53
2018-07-13T12:00:27.161Z,6.70
2018-07-13T12:02:55.831Z,7.15
2018-07-13T12:05:24.618Z,6.10
2018-07-13T12:07:54.245Z,6.80
2018-07-13T12:10:23.109Z,6.75
2018-07-13T12:12:56.642Z,6.50
2018-07-13T12:15:25.605Z,6.67
2018-07-13T12:17:54.857Z,6.35
2018-07-13T12:20:23.518Z,5.62
2018-07-13T12:22:52.519Z,5.90
2018-07-13T12:25:22.129Z,6.03
2018-07-13T12:27:51.261Z,5.97
2018-07-13T12:30:19.965Z,6.35
2018-07-13T12:32:48.799Z,5.97
2018-07-13T12:35:17.463Z,5.90
2018-07-13T12:37:46.059Z,6.83
2018-07-13T12:40:14.704Z,6.05
2018-07-13T12:42:43.495Z,6.30
2018-07-13T12:45:12.498Z,5.83
2018-07-13T12:47:41.166Z,5.45
2018-07-13T12:50:09.772Z,5.80
2018-07-13T12:52:38.463Z,6.10
2018-07-13T12:55:07.293Z,5.70
2018-07-13T12:57:35.978Z,6.33
2018-07-13T13:00:04.304Z,5.97
2018-07-13T13:02:39.656Z,5.83
2018-07-13T13:05:09.424Z,6.67
2018-07-13T13:07:38.184Z,5.75
2018-07-13T13:10:06.462Z,6.28
2018-07-13T13:12:35.286Z,5.85
2018-07-13T13:15:04.037Z,5.97
2018-07-13T13:17:32.808Z,5.65
2018-07-13T13:20:01.451Z,6.17
2018-07-13T13:22:30.106Z,5.62
2018-07-13T13:25:01.648Z,5.90
2018-07-13T13:27:30.342Z,6.10
2018-07-13T13:29:59.095Z,5.78
2018-07-13T13:32:27.703Z,5.62
2018-07-13T13:34:56.257Z,5.60
2018-07-13T13:37:24.907Z,6.05
2018-07-13T13:39:53.830Z,6.03
2018-07-13T13:42:22.572Z,5.75
2018-07-13T13:44:51.556Z,5.83
2018-07-13T13:47:20.400Z,5.95
2018-07-13T13:49:49.492Z,6.42
2018-07-13T13:52:18.074Z,5.90
2018-07-13T13:54:46.764Z,5.92
2018-07-13T13:57:15.760Z,5.42
2018-07-13T13:59:45.243Z,6.12
2018-07-13T14:02:16.656Z,5.80
2018-07-13T14:04:49.292Z,6.95
2018-07-13T14:07:18.352Z,5.65
2018-07-13T14:09:47.032Z,6.40
2018-07-13T14:12:15.742Z,5.92
2018-07-13T14:14:44.228Z,5.60
2018-07-13T14:17:12.805Z,5.87
2018-07-13T14:19:42.257Z,6.10
2018-07-13T14:22:11.044Z,5.58
2018-07-13T14:24:39.640Z,5.75
2018-07-13T14:27:08.353Z,5.10
2018-07-13T14:29:36.845Z,6.08
2018-07-13T14:32:05.950Z,6.08
2018-07-13T14:34:34.827Z,6.30
2018-07-13T14:37:09.939Z,5.70
2018-07-13T14:39:44.052Z,6.08
2018-07-13T14:42:12.594Z,5.72
2018-07-13T14:44:41.114Z,5.08
2018-07-13T14:47:09.968Z,6.05
2018-07-13T14:49:38.712Z,5.62
2018-07-13T14:52:08.699Z,5.58
2018-07-13T14:54:38.219Z,5.42
2018-07-13T14:57:07.813Z,5.67
2018-07-13T14:59:36.456Z,5.92
2018-07-13T15:02:05.212Z,6.15
2018-07-13T15:04:33.817Z,6.22
2018-07-13T15:07:02.351Z,5.42
2018-07-13T15:09:30.888Z,5.80
2018-07-13T15:11:59.404Z,5.87
2018-07-13T15:14:28.041Z,6.22
2018-07-13T15:16:56.524Z,6.60
2018-07-13T15:19:25.151Z,6.58
2018-07-13T15:21:53.686Z,6.03
2018-07-13T15:24:22.308Z,6.22
2018-07-13T15:26:51.299Z,7.22
2018-07-13T15:29:19.942Z,6.67
2018-07-13T15:31:48.575Z,5.33
2018-07-13T15:34:18.802Z,5.30
2018-07-13T15:36:47.857Z,5.05
2018-07-13T15:39:17.894Z,4.45
2018-07-13T15:41:46.574Z,4.75
2018-07-13T15:44:15.295Z,4.60
2018-07-13T15:46:44.301Z,4.47
2018-07-13T15:49:16.324Z,4.30
2018-07-13T15:51:44.967Z,4.03
2018-07-13T15:54:13.516Z,3.67
2018-07-13T15:56:42.315Z,4.50
2018-07-13T15:59:11.219Z,3.87
2018-07-13T16:01:39.853Z,3.62
2018-07-13T16:04:09.662Z,3.65
2018-07-13T16:06:38.468Z,5.62
2018-07-13T16:09:07.072Z,4.08
2018-07-13T16:11:35.843Z,4.30
2018-07-13T16:14:04.410Z,4.55
2018-07-13T16:16:33.113Z,4.12
2018-07-13T16:19:01.751Z,4.03
2018-07-13T16:21:30.483Z,4.20
2018-07-13T16:23:59.174Z,4.20
2018-07-13T16:26:28.348Z,3.98
2018-07-13T16:28:58.327Z,4.00
2018-07-13T16:31:26.913Z,3.90
2018-07-13T16:33:56.035Z,5.45
2018-07-13T16:36:24.653Z,4.10
2018-07-13T16:38:53.339Z,4.10
2018-07-13T16:41:22.042Z,4.72
2018-07-13T16:43:50.728Z,4.28
2018-07-13T16:46:19.467Z,4.55
2018-07-13T16:48:48.049Z,4.35
2018-07-13T16:51:16.630Z,4.10
2018-07-13T16:53:45.211Z,3.70
2018-07-13T16:56:14.535Z,3.95
2018-07-13T16:58:43.337Z,3.80
2018-07-13T17:01:12.000Z,3.47
2018-07-13T17:03:48.304Z,3.90
2018-07-13T17:06:16.881Z,3.77
2018-07-13T17:08:45.687Z,5.65
2018-07-13T17:11:14.446Z,4.20
2018-07-13T17:13:43.049Z,3.70
2018-07-13T17:16:11.593Z,4.17
2018-07-13T17:18:40.142Z,3.80
2018-07-13T17:21:08.694Z,3.77
2018-07-13T17:23:37.415Z,3.80
2018-07-13T17:26:06.955Z,3.47
2018-07-13T17:28:35.534Z,3.85
2018-07-13T17:31:04.737Z,4.12
2018-07-13T17:33:33.381Z,4.08
2018-07-13T17:36:01.914Z,3.83
2018-07-13T17:38:30.700Z,3.80
2018-07-13T17:41:00.600Z,4.08
2018-07-13T17:43:29.336Z,3.87
2018-07-13T17:45:57.980Z,4.00
2018-07-13T17:48:31.568Z,4.25
2018-07-13T17:51:00.150Z,5.97
2018-07-13T17:53:28.738Z,7.22
2018-07-13T17:55:57.314Z,6.20
2018-07-13T17:58:26.004Z,5.60
2018-07-13T18:00:55.279Z,4.28
2018-07-13T18:03:24.249Z,4.50
2018-07-13T18:11:10.756Z,4.05
2018-07-13T18:13:44.186Z,4.50
2018-07-13T18:16:16.664Z,4.40
2018-07-13T18:18:46.587Z,4.28
2018-07-13T18:45:38.436Z,4.70
2018-07-13T18:48:06.591Z,5.72
2018-07-13T18:50:35.194Z,5.90
2018-07-13T18:53:03.703Z,5.35
2018-07-13T18:55:32.224Z,6.97
2018-07-13T18:58:00.648Z,4.10
2018-07-13T19:00:29.377Z,3.83
2018-07-13T19:02:57.907Z,4.50
2018-07-13T19:05:26.406Z,4.20
2018-07-13T19:07:55.040Z,3.72
2018-07-13T19:10:23.577Z,4.40
2018-07-13T19:12:52.157Z,4.58
2018-07-13T19:15:20.692Z,6.58
2018-07-13T19:17:49.192Z,4.00
2018-07-13T19:20:17.674Z,3.98
2018-07-13T19:22:46.367Z,4.80
2018-07-13T19:25:14.714Z,4.80
2018-07-13T19:27:43.236Z,4.90
2018-07-13T19:30:11.644Z,4.60
2018-07-13T19:32:40.233Z,3.98
2018-07-13T19:35:08.786Z,4.15
2018-07-13T19:37:37.488Z,3.87
2018-07-13T19:40:05.972Z,5.08
2018-07-13T19:42:34.446Z,4.95
2018-07-13T19:45:04.118Z,3.83
2018-07-13T19:47:32.650Z,4.15
2018-07-13T19:50:01.120Z,4.00
2018-07-13T19:52:29.716Z,4.10
2018-07-13T19:54:58.609Z,3.70
2018-07-13T19:57:27.208Z,4.17
2018-07-13T19:59:55.782Z,4.45
2018-07-13T20:05:27.793Z,4.20
2018-07-13T20:07:56.483Z,3.92
2018-07-13T20:10:25.092Z,3.90
2018-07-13T20:12:53.850Z,3.92
2018-07-13T20:15:22.024Z,4.20
2018-07-13T20:17:50.553Z,3.90
2018-07-13T20:20:19.129Z,4.20
2018-07-13T20:22:47.670Z,4.97
2018-07-13T20:25:16.211Z,4.55
2018-07-13T20:27:44.651Z,4.58
2018-07-13T20:30:13.182Z,4.35
2018-07-13T20:32:42.117Z,4.12
2018-07-13T20:35:10.799Z,4.47
2018-07-13T20:37:39.457Z,4.85
2018-07-13T20:40:08.034Z,4.58
2018-07-13T20:42:36.821Z,4.70
2018-07-13T20:45:05.390Z,5.55
2018-07-13T20:47:34.013Z,4.67
2018-07-13T20:50:02.626Z,5.00
2018-07-13T20:52:31.208Z,5.03
2018-07-13T20:54:59.715Z,5.50
2018-07-13T20:57:28.322Z,9.10
2018-07-13T20:59:56.867Z,7.57
2018-07-13T21:02:25.501Z,5.40
2018-07-13T21:04:54.056Z,5.20
2018-07-13T21:07:22.661Z,4.87
2018-07-13T21:09:51.204Z,4.70
2018-07-13T21:12:19.925Z,5.60
2018-07-13T21:14:48.107Z,5.23
2018-07-13T21:17:16.634Z,5.00
2018-07-13T21:19:45.259Z,4.50
2018-07-13T21:22:13.803Z,5.33
2018-07-13T21:24:42.437Z,4.83
2018-07-13T21:27:11.455Z,6.23
2018-07-13T21:29:39.996Z,7.97
2018-07-13T21:32:08.589Z,7.00
2018-07-13T21:34:37.055Z,6.60
2018-07-13T21:37:05.612Z,6.57
2018-07-13T21:39:34.103Z,6.60
2018-07-13T21:42:02.732Z,6.20
2018-07-13T21:44:31.237Z,6.50
2018-07-13T21:46:59.777Z,6.47
2018-07-13T21:49:28.341Z,5.83
2018-07-13T21:51:56.836Z,6.40
2018-07-13T21:54:25.383Z,6.63
2018-07-13T21:56:53.909Z,6.90
2018-07-13T21:59:22.527Z,7.00
2018-07-13T22:01:51.121Z,6.80
2018-07-13T22:04:19.514Z,5.93
2018-07-13T22:06:48.025Z,6.37
2018-07-13T22:09:16.844Z,8.30
2018-07-13T22:11:45.522Z,9.80
2018-07-13T22:14:14.056Z,10.57
2018-07-13T22:16:42.671Z,13.10
2018-07-13T22:19:11.213Z,12.37
2018-07-13T22:21:40.392Z,11.23
2018-07-13T22:24:09.211Z,15.67
2018-07-13T22:26:37.755Z,7.33
2018-07-13T22:29:06.314Z,6.80
2018-07-13T22:31:34.897Z,7.70
2018-07-13T22:34:03.419Z,7.30
2018-07-13T22:36:31.953Z,6.73
2018-07-13T22:39:00.539Z,6.30
2018-07-13T22:41:29.340Z,6.40
2018-07-13T22:43:57.864Z,6.53
2018-07-13T22:46:26.364Z,7.07
2018-07-13T22:48:54.900Z,7.07
2018-07-13T22:51:23.465Z,6.70
2018-07-13T22:53:51.948Z,7.37
2018-07-13T22:56:20.471Z,6.57
2018-07-13T22:58:49.123Z,5.80
2018-07-13T23:01:17.778Z,6.10
2018-07-13T23:03:46.251Z,5.73
2018-07-13T23:06:14.828Z,6.17
2018-07-13T23:08:43.293Z,6.67
2018-07-13T23:11:11.858Z,6.17
2018-07-13T23:13:40.354Z,5.97
2018-07-13T23:16:08.840Z,6.23
2018-07-13T23:18:37.296Z,6.07
2018-07-13T23:21:05.860Z,6.07
2018-07-13T23:23:34.474Z,6.67
2018-07-13T23:26:02.749Z,6.70
2018-07-13T23:28:31.355Z,7.10
2018-07-13T23:30:59.929Z,6.70
2018-07-13T23:33:28.491Z,6.30
2018-07-13T23:35:57.024Z,6.27
2018-07-13T23:38:25.780Z,6.10
2018-07-13T23:40:54.399Z,6.03
2018-07-13T23:43:22.989Z,6.70
2018-07-13T23:45:51.492Z,6.10
2018-07-13T23:48:20.106Z,6.50
2018-07-13T23:50:48.685Z,6.47
2018-07-13T23:53:16.921Z,6.50
2018-07-13T23:55:45.541Z,6.43
2018-07-13T23:58:14.141Z,7.03
